Latest Weather Observations for Moorabbin Airport

IDV60801

Issued at 9:31 am EST Wednesday 1 June 2016 (issued every 30 minutes, with the page automatically refreshed every 10 minutes)

About weather observations | Map of weather stations | Latest weather observations for VIC | Other Formats
Station Details ID: 086077 Name: MOORABBIN AIRPORT Lat: -37.98 Lon: 145.10 Height: 12.1 m
Data from the previous 72 hours. | See also: Recent months at Moorabbin Airport
Date/Time
EST
Temp
°C
App
Temp
°C
Dew
Point
Rel
Hum
%
Delta-T
°C
Wind Press
QNH
hPa
Press
MSL
hPa
Rain
since 9 am
mm
Dir
 
Spd
km/h
Gust
km/h
Spd
kts
Gust
kts
01/09:30am 7.8 7.3 7.7 99 0.0 CALM 0 0 0 0 1029.2 1029.3 0.0
01/09:00am 6.1 5.2 6.0 99 0.0 CALM 0 0 0 0 1029.2 1029.3 0.0
01/08:30am 4.5 3.2 4.2 98 0.1 CALM 0 0 0 0 1029.1 1029.2 0.0
01/08:00am 3.9 2.5 3.6 98 0.1 CALM 0 0 0 0 1029.0 1029.1 0.0
01/07:30am 3.2 1.7 2.8 97 0.2 CALM 0 0 0 0 1028.8 1028.9 0.0
01/07:00am 3.3 1.8 2.9 97 0.2 CALM 0 0 0 0 1028.7 1028.8 0.0
01/06:30am 3.4 1.9 3.0 97 0.2 CALM 0 0 0 0 1028.5 1028.6 0.0
01/06:27am 3.4 1.9 3.0 97 0.2 CALM 0 0 0 0 1028.4 1028.5 0.0
01/06:08am 3.6 2.1 3.2 97 0.2 CALM 0 0 0 0 1028.2 1028.3 0.0
01/06:00am 3.1 1.5 2.7 97 0.2 CALM 0 0 0 0 1028.1 1028.2 0.0
01/05:46am 3.1 1.5 2.7 97 0.2 CALM 0 0 0 0 1028.0 1028.1 0.0
01/05:30am 3.2 1.7 2.8 97 0.2 CALM 0 0 0 0 1027.9 1028.0 0.0
01/05:20am 3.2 1.6 2.6 96 0.2 CALM 0 0 0 0 1027.8 1027.9 0.0
01/05:12am 3.2 1.6 2.6 96 0.2 CALM 0 0 0 0 1027.8 1027.9 0.0
01/05:00am 3.3 1.8 2.9 97 0.2 CALM 0 0 0 0 1027.8 1027.9 0.0
01/04:41am 3.3 1.7 2.7 96 0.2 CALM 0 0 0 0 1027.8 1027.9 0.0
01/04:30am 3.2 1.6 2.6 96 0.2 CALM 0 0 0 0 1027.9 1028.0 0.0
01/04:00am 3.9 1.3 3.3 96 0.2 N 6 7 3 4 1028.0 1028.1 0.0
01/03:30am 3.7 1.1 3.1 96 0.2 N 6 9 3 5 1027.9 1028.0 0.0
01/03:00am 3.3 1.7 2.6 95 0.3 CALM 0 0 0 0 1028.1 1028.2 0.0
01/02:48am 3.3 1.7 2.6 95 0.3 CALM 0 0 0 0 1028.2 1028.3 0.0
01/02:30am 3.8 2.3 3.1 95 0.3 CALM 0 0 0 0 1028.3 1028.4 0.0
01/02:29am 3.7 2.2 3.0 95 0.3 CALM 0 0 0 0 1028.3 1028.4 0.0
01/02:00am 4.0 1.4 3.3 95 0.3 N 6 9 3 5 1028.3 1028.4 0.0
01/01:30am 4.0 2.6 3.3 95 0.3 CALM 0 4 0 2 1028.3 1028.4 0.0
01/01:00am 3.8 1.1 2.9 94 0.4 NE 6 6 3 3 1028.4 1028.5 0.0
01/12:38am 4.2 2.4 3.3 94 0.4 N 2 7 1 4 1028.4 1028.5 0.0
01/12:30am 4.3 2.9 3.4 94 0.4 CALM 0 0 0 0 1028.4 1028.5 0.0
01/12:20am 4.5 3.1 3.6 94 0.4 CALM 0 0 0 0 1028.5 1028.6 0.0
01/12:00am 4.8 3.5 3.9 94 0.4 CALM 0 0 0 0 1028.5 1028.6 0.0
 
Date/Time
EST
Temp
°C
App
Temp
°C
Dew
Point
Rel
Hum
%
Delta-T
°C
Wind Press
QNH
hPa
Press
MSL
hPa
Rain
since 9 am
mm
Dir
 
Spd
km/h
Gust
km/h
Spd
kts
Gust
kts
31/11:42pm 5.0 3.7 4.0 93 0.4 CALM 0 0 0 0 1028.6 1028.7 0.0
31/11:30pm 5.1 3.0 4.1 93 0.4 NNE 4 7 2 4 1028.7 1028.8 0.0
31/11:28pm 5.0 2.9 3.8 92 0.5 NNE 4 7 2 4 1028.7 1028.8 0.0
31/11:25pm 5.0 2.9 4.0 93 0.4 NNE 4 7 2 4 1028.7 1028.8 0.0
31/11:05pm 5.2 3.9 4.0 92 0.5 CALM 0 0 0 0 1028.8 1028.9 0.0
31/11:00pm 5.7 4.5 4.7 93 0.4 CALM 0 0 0 0 1028.8 1028.9 0.0
31/10:33pm 6.0 4.8 4.8 92 0.5 CALM 0 0 0 0 1028.8 1028.9 0.0
31/10:30pm 6.1 5.0 4.9 92 0.5 CALM 0 0 0 0 1028.8 1028.9 0.0
31/10:18pm 6.1 4.2 4.7 91 0.6 ESE 4 7 2 4 1028.8 1028.9 0.0
31/10:07pm 6.5 4.3 5.1 91 0.6 ESE 6 7 3 4 1028.9 1029.0 0.0
31/10:00pm 6.4 4.1 5.0 91 0.6 ESE 6 6 3 3 1028.9 1029.0 0.0
31/09:49pm 6.4 5.3 4.9 90 0.7 CALM 0 6 0 3 1028.9 1029.0 0.0
31/09:30pm 6.6 5.5 5.1 90 0.7 CALM 0 0 0 0 1028.9 1029.0 0.0
31/09:00pm 6.7 5.6 4.9 88 0.8 CALM 0 0 0 0 1028.8 1028.9 0.0
31/08:30pm 7.7 6.0 5.7 87 0.9 SE 4 6 2 3 1028.8 1028.9 0.0
31/08:00pm 8.2 6.9 5.8 85 1.1 SE 2 6 1 3 1028.7 1028.8 0.0
31/07:30pm 8.3 7.2 5.2 81 1.4 CALM 0 0 0 0 1028.5 1028.6 0.0
31/07:00pm 10.0 9.3 6.9 81 1.4 CALM 0 0 0 0 1028.6 1028.7 0.0
31/06:30pm 10.1 8.6 6.6 79 1.6 E 4 7 2 4 1028.5 1028.6 0.0
31/06:00pm 10.0 7.0 5.8 75 1.9 ESE 11 13 6 7 1028.2 1028.3 0.0
31/05:30pm 10.9 7.5 5.9 71 2.3 ESE 13 15 7 8 1028.1 1028.2 0.0
31/05:00pm 12.8 9.5 6.6 66 2.9 ESE 13 17 7 9 1027.9 1028.0 0.0
31/04:30pm 14.2 10.2 6.6 60 3.7 SE 17 20 9 11 1027.6 1027.6 0.0
31/04:00pm 15.1 11.5 6.9 58 4.0 ESE 15 20 8 11 1027.5 1027.5 0.0
31/03:30pm 15.7 12.5 7.0 56 4.3 SE 13 19 7 10 1027.5 1027.5 0.0
31/03:00pm 15.8 12.3 7.1 56 4.3 SE 15 17 8 9 1027.6 1027.6 0.0
31/02:30pm 15.9 12.8 7.4 57 4.2 SSE 13 17 7 9 1027.6 1027.6 0.0
31/02:00pm 15.3 12.6 7.3 59 3.9 SSE 11 19 6 10 1028.0 1028.1 0.0
31/01:30pm 15.1 12.5 7.6 61 3.7 SE 11 17 6 9 1028.3 1028.4 0.0
31/01:00pm 14.5 12.0 6.6 59 3.8 SE 9 15 5 8 1028.5 1028.6 0.0
31/12:30pm 14.2 12.1 6.6 60 3.7 ESE 7 15 4 8 1028.9 1029.0 0.0
31/12:00pm 13.9 11.8 6.7 62 3.5 ENE 7 11 4 6 1029.4 1029.5 0.0
31/11:30am 12.9 10.4 6.5 65 3.1 E 9 11 5 6 1030.0 1030.0 0.0
31/11:00am 12.2 9.8 6.9 70 2.5 E 9 13 5 7 1030.3 1030.3 0.0
31/10:30am 11.1 9.2 7.4 78 1.8 E 7 9 4 5 1030.7 1030.7 0.0
31/10:00am 9.7 8.9 8.0 89 0.8 ENE 2 6 1 3 1030.8 1030.8 0.0
31/09:30am 8.4 7.8 7.5 94 0.4 CALM 0 0 0 0 1030.9 1030.9 0.0
31/09:00am 6.5 5.6 6.1 97 0.2 CALM 0 2 0 1 1031.0 1031.0 0.0
31/08:30am 4.1 1.6 3.5 96 0.2 N 6 6 3 3 1030.7 1030.7 0.0
31/08:00am 3.0 0.2 2.3 95 0.3 N 6 7 3 4 1030.4 1030.4 0.0
31/07:30am 2.4 -0.5 1.7 95 0.3 N 6 7 3 4 1030.1 1030.1 0.0
31/07:00am 2.7 -0.1 1.8 94 0.3 N 6 7 3 4 1029.8 1029.9 0.0
31/06:30am 2.8 0.7 1.9 94 0.4 N 2 7 1 4 1029.5 1029.6 0.0
31/06:00am 1.9 0.1 0.9 93 0.4 CALM 0 0 0 0 1029.2 1029.3 0.0
31/05:51am 2.8 0.7 1.8 93 0.4 N 2 6 1 3 1029.1 1029.2 0.0
31/05:30am 2.9 0.1 1.9 93 0.4 NNW 6 7 3 4 1029.0 1029.1 0.0
31/05:25am 3.0 0.2 2.0 93 0.4 NNW 6 7 3 4 1029.0 1029.1 0.0
31/05:00am 3.0 0.9 2.0 93 0.4 ENE 2 7 1 4 1028.9 1029.0 0.0
31/04:30am 2.7 0.9 1.5 92 0.5 CALM 0 0 0 0 1028.8 1028.9 0.0
31/04:00am 2.6 -0.3 1.3 91 0.5 SE 6 7 3 4 1028.7 1028.8 0.0
31/03:30am 3.3 0.9 2.0 91 0.5 N 4 9 2 5 1028.7 1028.8 0.0
31/03:00am 4.6 2.0 3.3 91 0.5 N 6 7 3 4 1028.6 1028.7 0.0
31/02:30am 4.4 1.7 2.8 89 0.6 NNW 6 6 3 3 1028.6 1028.7 0.0
31/02:00am 4.9 1.7 3.2 89 0.7 NNW 9 9 5 5 1028.5 1028.6 0.0
31/01:30am 4.8 2.5 3.0 88 0.7 NNW 4 6 2 3 1028.6 1028.7 0.0
31/01:00am 5.8 3.2 4.1 89 0.7 N 7 7 4 4 1028.5 1028.6 0.0
31/12:30am 6.1 3.2 4.6 90 0.6 N 9 9 5 5 1028.5 1028.6 0.0
31/12:00am 5.4 2.7 3.7 89 0.7 N 7 7 4 4 1028.6 1028.7 0.0
 
Date/Time
EST
Temp
°C
App
Temp
°C
Dew
Point
Rel
Hum
%
Delta-T
°C
Wind Press
QNH
hPa
Press
MSL
hPa
Rain
since 9 am
mm
Dir
 
Spd
km/h
Gust
km/h
Spd
kts
Gust
kts
30/11:30pm 6.5 3.7 5.0 90 0.7 N 9 9 5 5 1028.5 1028.6 0.0
30/11:00pm 4.8 2.2 3.3 90 0.6 NE 6 7 3 4 1028.5 1028.6 0.0
30/10:30pm 6.1 2.8 4.6 90 0.6 N 11 11 6 6 1028.4 1028.5 0.0
30/10:00pm 5.8 4.4 3.8 87 0.8 CALM 0 0 0 0 1028.2 1028.3 0.0
30/09:30pm 5.9 4.5 3.6 85 1.0 CALM 0 0 0 0 1028.1 1028.2 0.0
30/09:00pm 6.5 5.2 4.0 84 1.1 CALM 0 0 0 0 1027.9 1028.0 0.0
30/08:30pm 7.2 6.0 4.5 83 1.2 CALM 0 0 0 0 1027.8 1027.9 0.0
30/08:00pm 7.3 5.9 3.7 78 1.5 CALM 0 0 0 0 1027.6 1027.6 0.0
30/07:30pm 8.4 7.2 4.8 78 1.6 CALM 0 0 0 0 1027.5 1027.5 0.0
30/07:00pm 8.5 5.9 4.3 75 1.8 ESE 7 9 4 5 1027.2 1027.2 0.0
30/06:30pm 9.2 6.3 4.4 72 2.1 E 9 11 5 6 1027.0 1027.0 0.0
30/06:00pm 9.6 6.3 4.4 70 2.3 ESE 11 11 6 6 1026.8 1026.8 0.0
30/05:30pm 10.3 7.0 4.7 68 2.5 ESE 11 13 6 7 1026.6 1026.6 0.0
30/05:00pm 11.3 7.6 4.7 64 3.0 SE 13 15 7 8 1026.3 1026.3 0.0
30/04:30pm 12.9 8.6 5.1 59 3.6 SE 17 20 9 11 1026.0 1026.0 0.0
30/04:00pm 13.5 9.6 5.4 58 3.8 SE 15 20 8 11 1025.9 1025.9 0.0
30/03:30pm 13.8 9.5 5.4 57 3.9 SE 17 22 9 12 1025.7 1025.7 0.0
30/03:00pm 13.8 9.0 4.7 54 4.2 SE 19 24 10 13 1025.6 1025.6 0.0
30/02:30pm 14.0 9.6 4.9 54 4.2 SE 17 22 9 12 1025.6 1025.6 0.0
30/02:00pm 15.0 12.1 4.7 50 4.8 ENE 9 20 5 11 1025.7 1025.7 0.0
30/01:30pm 14.6 11.3 4.3 50 4.8 ENE 11 20 6 11 1025.8 1025.8 0.0
30/01:00pm 14.1 10.7 4.1 51 4.5 ESE 11 17 6 9 1026.0 1026.0 0.0
30/12:30pm 14.0 10.7 4.6 53 4.3 E 11 17 6 9 1026.2 1026.2 0.0
30/12:00pm 13.6 11.0 4.2 53 4.3 E 7 15 4 8 1026.5 1026.5 0.0
30/11:30am 13.4 10.7 3.8 52 4.3 NE 7 11 4 6 1026.9 1026.9 0.0
30/11:00am 13.1 10.9 5.3 59 3.6 N 6 9 3 5 1027.2 1027.2 0.0
30/10:30am 12.5 10.4 5.7 63 3.2 NNW 6 7 3 4 1027.3 1027.3 0.0
30/10:00am 11.6 9.3 5.9 68 2.6 N 7 9 4 5 1027.3 1027.3 0.0
30/09:30am 10.0 6.9 5.6 74 2.0 N 11 13 6 7 1027.3 1027.3 0.0
30/09:00am 9.7 7.5 5.5 75 1.9 NNE 6 9 3 5 1027.1 1027.1 0.0
30/08:30am 8.8 6.0 5.0 77 1.7 N 9 11 5 6 1026.8 1026.8 0.0
30/08:00am 8.3 5.4 4.7 78 1.6 N 9 11 5 6 1026.5 1026.5 0.0
30/07:30am 7.7 5.3 4.5 80 1.4 N 6 9 3 5 1026.3 1026.3 0.0
30/07:00am 8.0 5.1 4.6 79 1.5 N 9 11 5 6 1026.0 1026.0 0.0
30/06:30am 7.9 5.1 5.0 82 1.3 N 9 13 5 7 1025.7 1025.7 0.0
30/06:00am 7.6 6.1 4.9 83 1.2 NNE 2 7 1 4 1025.5 1025.5 0.0
30/05:30am 7.5 5.2 4.6 82 1.3 NNE 6 7 3 4 1025.1 1025.1 0.0
30/05:00am 7.7 5.7 4.5 80 1.4 NNE 4 6 2 3 1024.9 1024.9 0.0
30/04:30am 7.6 5.2 4.2 79 1.5 N 6 9 3 5 1024.6 1024.6 0.0
30/04:00am 7.6 5.6 4.4 80 1.4 NNE 4 9 2 5 1024.4 1024.4 0.0
30/03:30am 7.4 4.5 4.4 81 1.3 N 9 11 5 6 1024.4 1024.4 0.0
30/03:00am 7.5 5.0 4.5 81 1.3 N 7 9 4 5 1024.4 1024.4 0.0
30/02:30am 7.5 4.6 4.5 81 1.3 N 9 13 5 7 1024.2 1024.2 0.0
30/02:00am 6.9 3.1 3.9 81 1.3 N 13 15 7 8 1024.0 1024.0 0.0
30/01:30am 7.1 4.4 3.9 80 1.4 N 7 11 4 6 1023.8 1023.8 0.0
30/01:00am 7.8 5.5 4.6 80 1.4 N 6 9 3 5 1023.7 1023.7 0.0
30/12:30am 8.6 5.9 5.4 80 1.4 N 9 11 5 6 1023.6 1023.6 0.0
30/12:00am 9.5 7.4 6.0 79 1.6 N 6 7 3 4 1023.5 1023.5 0.0
 
Date/Time
EST
Temp
°C
App
Temp
°C
Dew
Point
Rel
Hum
%
Delta-T
°C
Wind Press
QNH
hPa
Press
MSL
hPa
Rain
since 9 am
mm
Dir
 
Spd
km/h
Gust
km/h
Spd
kts
Gust
kts
29/11:30pm 9.5 7.5 6.2 80 1.5 N 6 7 3 4 1023.4 1023.4 0.0
29/11:00pm 9.6 7.5 6.0 78 1.6 N 6 9 3 5 1023.4 1023.4 0.0
29/10:30pm 9.8 8.7 5.2 73 2.1 CALM 0 0 0 0 1023.3 1023.3 0.0
29/10:00pm 10.6 9.5 5.2 69 2.4 CALM 0 0 0 0 1023.1 1023.1 0.0
29/09:30pm 11.3 10.3 5.4 67 2.7 CALM 0 6 0 3 1023.1 1023.1 0.0
29/09:00pm 10.4 8.2 5.2 70 2.4 NE 6 11 3 6 1023.0 1023.0 0.0
29/08:30pm 10.9 8.6 4.8 66 2.8 WNW 6 7 3 4 1022.8 1022.8 0.0
29/08:00pm 10.7 8.1 4.4 65 2.8 WNW 7 9 4 5 1022.6 1022.6 0.0
29/07:30pm 10.4 7.7 3.9 64 2.9 WNW 7 9 4 5 1022.2 1022.2 0.0
29/07:00pm 10.3 7.6 3.6 63 2.9 WNW 7 11 4 6 1021.9 1021.9 0.0
29/06:30pm 11.1 8.0 3.6 60 3.3 W 9 13 5 7 1021.6 1021.6 0.0
29/06:00pm 11.5 8.4 3.8 59 3.4 WSW 9 13 5 7 1021.4 1021.4 0.0
29/05:30pm 11.7 8.8 4.4 61 3.3 W 9 13 5 7 1021.1 1021.1 0.0
29/05:00pm 12.1 8.5 4.8 61 3.3 W 13 19 7 10 1021.1 1021.1 0.0
29/04:30pm 12.5 8.9 5.0 60 3.5 WSW 13 20 7 11 1020.9 1020.9 0.0
29/04:00pm 12.8 9.2 5.0 59 3.6 WSW 13 19 7 10 1020.8 1020.8 0.0
29/03:30pm 12.8 9.2 4.8 58 3.7 W 13 20 7 11 1020.6 1020.6 0.0
29/03:00pm 12.6 8.7 5.3 61 3.4 WNW 15 22 8 12 1020.6 1020.6 0.0
29/02:30pm 12.7 8.4 5.4 61 3.4 W 17 24 9 13 1020.4 1020.4 0.0
29/02:00pm 12.6 7.8 5.5 62 3.3 WNW 20 30 11 16 1020.3 1020.3 0.0
29/01:30pm 12.7 7.9 5.4 61 3.4 W 20 32 11 17 1020.2 1020.2 0.0
29/01:00pm 12.8 7.6 5.7 62 3.3 W 22 33 12 18 1020.2 1020.2 0.0
29/12:30pm 12.9 8.1 5.8 62 3.3 W 20 32 11 17 1020.3 1020.3 0.0
29/12:00pm 12.9 8.4 6.0 63 3.2 W 19 30 10 16 1020.3 1020.3 0.0
29/11:30am 12.4 7.6 5.6 63 3.2 W 20 30 11 16 1020.4 1020.4 0.0
29/11:00am 12.5 7.9 5.7 63 3.2 W 19 30 10 16 1020.5 1020.5 0.0
29/10:30am 12.4 7.8 5.8 64 3.1 W 19 30 10 16 1020.3 1020.3 0.0
29/10:00am 12.1 7.3 5.7 65 3.0 W 20 32 11 17 1020.1 1020.1 0.0

Other Formats:

Comma delimited format used in spreadsheet applications
http://www.bom.gov.au/fwo/IDV60801/IDV60801.94870.axf

JavaScript Object Notation format (JSON) in row-major order
http://www.bom.gov.au/fwo/IDV60801/IDV60801.94870.json